Time;durP1;ratioP1;P1;durP2;ratioP2;P2;SDS_P1;SDS_P2;PMS_P1;PMS_P2;Temp;Humidity;BMP_temperature;BMP_pressure;BME280_temperature;BME280_humidity;BME280_pressure;Samples;Min_cycle;Max_cycle;Signal;HPM_P1;HPM_P2
2022/07/23 00:01:13;;;;;;;6.97;4.70;;;;;;;15.63;92.25;101677.78;5282074;28;20032;-75
2022/07/23 00:03:44;;;;;;;7.67;5.27;;;;;;;15.60;91.96;101676.09;5282077;28;20032;-76
2022/07/23 00:06:16;;;;;;;5.90;4.30;;;;;;;15.61;92.32;101685.69;5263986;28;20043;-75
2022/07/23 00:08:47;;;;;;;7.60;4.10;;;;;;;15.80;91.94;101694.13;5285993;28;20051;-75
2022/07/23 00:11:19;;;;;;;7.80;4.47;;;;;;;15.69;91.92;101690.81;5285889;28;20080;-74
2022/07/23 00:13:50;;;;;;;7.33;4.37;;;;;;;15.79;92.00;101689.78;5267836;28;20037;-76
2022/07/23 00:16:21;;;;;;;5.97;4.20;;;;;;;15.75;91.68;101689.84;5285842;28;20029;-75
2022/07/23 00:18:53;;;;;;;8.00;4.50;;;;;;;15.60;91.98;101684.00;5285896;28;20124;-74
2022/07/23 00:21:24;;;;;;;7.90;4.40;;;;;;;15.57;92.32;101681.41;5285737;28;20120;-73
2022/07/23 00:23:56;;;;;;;7.37;4.27;;;;;;;15.49;92.56;101686.81;5285772;28;20028;-74
2022/07/23 00:26:27;;;;;;;6.50;5.07;;;;;;;15.50;92.68;101677.16;5286149;28;20083;-74
2022/07/23 00:28:58;;;;;;;5.33;4.10;;;;;;;15.47;93.24;101680.72;5285778;28;20071;-75
2022/07/23 00:31:30;;;;;;;8.70;4.33;;;;;;;15.44;92.92;101677.28;5285619;28;20035;-75
2022/07/23 00:34:01;;;;;;;8.10;4.53;;;;;;;15.30;92.95;101680.16;5285520;28;20028;-74
2022/07/23 00:36:33;;;;;;;5.37;4.00;;;;;;;15.28;93.05;101674.94;5267438;28;20115;-75
2022/07/23 00:39:04;;;;;;;5.07;4.53;;;;;;;15.27;93.14;101681.06;5285329;28;20487;-74
2022/07/23 00:41:35;;;;;;;6.53;4.23;;;;;;;15.10;93.42;101681.38;5286068;28;20028;-76
2022/07/23 00:44:19;;;;;;;7.33;4.10;;;;;;;15.13;93.98;101683.09;5285276;28;20052;-75
2022/07/23 00:46:57;;;;;;;8.30;4.30;;;;;;;15.00;93.72;101678.94;5286077;28;20036;-76
2022/07/23 00:49:29;;;;;;;6.80;3.90;;;;;;;15.07;93.78;101673.56;5298284;28;20047;-75
2022/07/23 00:52:02;;;;;;;6.20;4.50;;;;;;;14.93;94.10;101673.78;5291535;28;20028;-75
2022/07/23 00:54:34;;;;;;;7.25;4.47;;;;;;;14.93;94.40;101679.03;5284871;28;20035;-75
2022/07/23 00:57:06;;;;;;;11.20;5.20;;;;;;;14.79;94.47;101675.78;5266839;28;20123;-75
2022/07/23 00:59:41;;;;;;;7.10;4.37;;;;;;;14.83;94.63;101680.09;5284867;28;20111;-75
2022/07/23 01:02:13;;;;;;;6.35;4.18;;;;;;;14.78;94.79;101674.06;5284752;28;20060;-75
2022/07/23 01:04:44;;;;;;;7.63;4.87;;;;;;;14.67;94.86;101676.84;5284604;28;20578;-75
2022/07/23 01:07:17;;;;;;;6.65;4.72;;;;;;;14.68;95.08;101673.34;5284658;28;20471;-75
2022/07/23 01:09:50;;;;;;;7.78;4.38;;;;;;;14.56;95.19;101663.84;5266056;28;20058;-75
2022/07/23 01:12:21;;;;;;;6.30;4.30;;;;;;;14.59;95.89;101673.44;5284925;28;20032;-75
2022/07/23 01:15:00;;;;;;;7.33;4.57;;;;;;;14.63;96.05;101672.53;5284832;28;20032;-75
2022/07/23 01:17:31;;;;;;;6.40;4.35;;;;;;;14.61;95.51;101674.31;5284677;28;20464;-75
2022/07/23 01:20:04;;;;;;;8.03;4.30;;;;;;;14.62;95.51;101667.28;5284641;28;20040;-75
2022/07/23 01:22:35;;;;;;;7.60;4.85;;;;;;;14.54;95.45;101657.75;5284722;28;20378;-74
2022/07/23 01:25:07;;;;;;;9.87;4.93;;;;;;;14.40;95.72;101663.22;5284448;28;20147;-75
2022/07/23 01:27:39;;;;;;;6.78;4.72;;;;;;;14.34;96.22;101672.94;5284478;28;20055;-75
2022/07/23 01:30:11;;;;;;;8.10;4.80;;;;;;;14.29;96.55;101675.59;5284539;28;20056;-75
2022/07/23 01:32:42;;;;;;;6.80;4.45;;;;;;;14.26;96.78;101670.41;5289154;28;20017;-76
2022/07/23 01:35:14;;;;;;;7.53;4.30;;;;;;;14.23;96.82;101670.44;5290902;28;20520;-75
2022/07/23 01:37:45;;;;;;;5.20;4.43;;;;;;;14.30;97.03;101673.88;5284168;28;20115;-75
2022/07/23 01:40:17;;;;;;;7.87;4.77;;;;;;;14.26;96.95;101662.53;5284039;28;20040;-75
2022/07/23 01:42:48;;;;;;;7.20;4.83;;;;;;;14.30;96.84;101658.13;5283842;28;20057;-75
2022/07/23 01:45:19;;;;;;;6.53;4.80;;;;;;;14.22;96.88;101655.63;5283830;28;20048;-76
2022/07/23 01:47:51;;;;;;;6.67;4.80;;;;;;;14.21;96.77;101659.97;5284487;28;20349;-76
2022/07/23 01:50:22;;;;;;;6.43;4.60;;;;;;;14.13;96.87;101667.09;5283619;28;20344;-75
2022/07/23 01:52:54;;;;;;;6.27;4.97;;;;;;;13.98;96.91;101655.06;5283760;28;20443;-75
2022/07/23 01:55:25;;;;;;;6.37;4.83;;;;;;;13.95;97.31;101660.34;5283970;28;20104;-75
2022/07/23 01:57:56;;;;;;;9.20;5.07;;;;;;;14.01;97.44;101660.25;5283715;28;20459;-77
2022/07/23 02:00:28;;;;;;;6.90;5.53;;;;;;;14.03;97.28;101657.63;5283946;28;20032;-74
2022/07/23 02:03:00;;;;;;;6.77;4.80;;;;;;;13.94;97.20;101655.09;5283238;28;20107;-75
2022/07/23 02:05:31;;;;;;;7.27;4.40;;;;;;;13.81;97.19;101652.66;5283592;28;20430;-75
2022/07/23 02:08:03;;;;;;;9.40;6.00;;;;;;;13.90;97.90;101654.28;5284012;28;20036;-74
2022/07/23 02:10:34;;;;;;;9.63;5.43;;;;;;;13.70;97.56;101649.31;5283020;28;20037;-76
2022/07/23 02:13:06;;;;;;;7.37;5.10;;;;;;;13.73;97.70;101656.25;5283238;28;20376;-75
2022/07/23 02:15:37;;;;;;;7.33;5.20;;;;;;;13.66;98.14;101644.97;5284813;28;20052;-73
2022/07/23 02:18:09;;;;;;;8.13;5.53;;;;;;;13.68;98.11;101646.69;5292391;28;20033;-74
2022/07/23 02:20:40;;;;;;;6.57;5.10;;;;;;;13.60;98.47;101645.03;5283099;28;20376;-74
2022/07/23 02:23:12;;;;;;;9.88;5.53;;;;;;;13.62;98.56;101654.63;5283407;28;20108;-74
2022/07/23 02:25:43;;;;;;;9.57;5.33;;;;;;;13.66;98.61;101647.59;5282932;28;20031;-74
2022/07/23 02:28:15;;;;;;;6.63;4.90;;;;;;;13.45;98.43;101646.94;5282973;28;20037;-74
2022/07/23 02:30:46;;;;;;;8.10;4.90;;;;;;;13.53;99.01;101646.00;5282429;28;20123;-74
2022/07/23 02:33:17;;;;;;;7.77;5.67;;;;;;;13.54;98.99;101639.88;5283267;28;20059;-74
2022/07/23 02:35:49;;;;;;;6.97;5.93;;;;;;;13.48;98.91;101646.06;5282568;28;20089;-75
2022/07/23 02:38:20;;;;;;;6.73;5.27;;;;;;;13.46;99.10;101645.22;5283210;28;20165;-74
2022/07/23 02:40:52;;;;;;;6.80;4.97;;;;;;;13.38;99.12;101645.28;5282726;28;20034;-74
2022/07/23 02:43:23;;;;;;;7.90;5.40;;;;;;;13.34;99.13;101643.56;5282357;28;20056;-74
2022/07/23 02:45:54;;;;;;;6.73;5.10;;;;;;;13.28;99.24;101649.72;5282926;28;20076;-74
2022/07/23 02:48:26;;;;;;;10.97;6.30;;;;;;;13.24;99.69;101655.00;5282895;28;20064;-74
2022/07/23 02:50:57;;;;;;;6.33;5.40;;;;;;;13.28;99.89;101654.97;5282437;28;20078;-74
2022/07/23 02:53:28;;;;;;;6.93;5.10;;;;;;;13.25;99.73;101659.34;5264497;28;20120;-74
2022/07/23 02:56:00;;;;;;;8.30;5.10;;;;;;;13.17;99.86;101659.44;5282440;28;20471;-75
2022/07/23 02:58:31;;;;;;;6.33;5.20;;;;;;;13.10;100.00;101660.38;5264814;28;20036;-75
2022/07/23 03:01:03;;;;;;;6.80;6.10;;;;;;;13.09;100.00;101662.13;5281823;28;20032;-74
2022/07/23 03:03:34;;;;;;;6.77;5.60;;;;;;;13.10;100.00;101663.84;5281962;28;20063;-74
2022/07/23 03:06:06;;;;;;;9.30;6.03;;;;;;;13.09;100.00;101658.66;5282593;28;20033;-74
2022/07/23 03:08:37;;;;;;;6.53;5.90;;;;;;;13.16;100.00;101662.06;5282556;28;20047;-73
2022/07/23 03:11:10;;;;;;;6.83;5.23;;;;;;;13.09;100.00;101662.13;5282358;28;20079;-75
2022/07/23 03:13:43;;;;;;;8.20;5.88;;;;;;;13.02;100.00;101660.44;5264087;28;20078;-75
2022/07/23 03:16:14;;;;;;;7.70;5.90;;;;;;;13.11;100.00;101657.72;5282494;28;20032;-75
2022/07/23 03:18:46;;;;;;;9.23;6.20;;;;;;;12.94;100.00;101662.25;5282346;28;20035;-76
2022/07/23 03:21:17;;;;;;;7.90;5.57;;;;;;;12.95;100.00;101674.47;5264048;28;20033;-74
2022/07/23 03:23:49;;;;;;;8.40;5.60;;;;;;;12.92;100.00;101669.25;5282387;28;20036;-75
2022/07/23 03:26:20;;;;;;;9.63;6.07;;;;;;;12.88;100.00;101667.53;5282939;28;20108;-75
2022/07/23 03:28:52;;;;;;;8.07;6.53;;;;;;;12.94;100.00;101671.00;5282488;28;20039;-75
2022/07/23 03:31:23;;;;;;;7.97;6.03;;;;;;;12.91;100.00;101675.34;5282905;28;20029;-75
2022/07/23 03:33:55;;;;;;;13.07;6.70;;;;;;;12.91;100.00;101683.19;5264757;28;20085;-75
2022/07/23 03:36:26;;;;;;;11.03;7.20;;;;;;;12.85;100.00;101673.66;5282898;28;20075;-76
2022/07/23 03:38:58;;;;;;;7.00;6.17;;;;;;;12.85;100.00;101680.66;5282280;28;20041;-75
2022/07/23 03:41:29;;;;;;;7.77;6.97;;;;;;;12.79;100.00;101680.72;5283377;28;20029;-75
2022/07/23 03:44:00;;;;;;;9.87;6.80;;;;;;;12.90;100.00;101682.34;5294923;28;20076;-74
2022/07/23 03:46:32;;;;;;;7.60;6.80;;;;;;;12.87;100.00;101684.13;5294067;28;20464;-74
2022/07/23 03:49:03;;;;;;;8.30;7.37;;;;;;;12.83;100.00;101685.00;5289809;28;20218;-75
2022/07/23 03:51:34;;;;;;;8.07;7.27;;;;;;;12.74;100.00;101686.81;5289431;28;20055;-75
2022/07/23 03:54:06;;;;;;;8.20;7.40;;;;;;;12.77;100.00;101680.72;5289071;28;20074;-75
2022/07/23 03:56:37;;;;;;;8.50;7.00;;;;;;;12.77;100.00;101678.97;5288896;28;20535;-75
2022/07/23 03:59:09;;;;;;;10.57;7.83;;;;;;;12.69;100.00;101682.53;5288898;28;20029;-76
2022/07/23 04:01:41;;;;;;;8.60;7.68;;;;;;;12.68;100.00;101683.38;5289318;28;20028;-75
2022/07/23 04:04:12;;;;;;;9.13;7.77;;;;;;;12.70;100.00;101679.00;5289295;28;20036;-75
2022/07/23 04:06:43;;;;;;;10.90;8.67;;;;;;;12.66;100.00;101679.94;5289140;28;20123;-75
2022/07/23 04:09:15;;;;;;;11.97;8.20;;;;;;;12.70;100.00;101681.63;5289303;28;20379;-74
2022/07/23 04:11:46;;;;;;;10.37;8.00;;;;;;;12.64;100.00;101681.66;5288831;28;20052;-75
2022/07/23 04:14:17;;;;;;;10.97;9.77;;;;;;;12.64;100.00;101694.75;5288743;28;20111;-74
2022/07/23 04:16:49;;;;;;;10.30;8.90;;;;;;;12.68;100.00;101691.25;5288974;28;20052;-74
2022/07/23 04:19:20;;;;;;;11.07;8.40;;;;;;;12.69;100.00;101688.63;5288530;28;20116;-74
2022/07/23 04:21:52;;;;;;;10.20;9.20;;;;;;;12.81;100.00;101697.25;5270786;28;20031;-75
2022/07/23 04:24:23;;;;;;;10.30;9.17;;;;;;;12.68;100.00;101701.69;5289135;28;20029;-75
2022/07/23 04:26:55;;;;;;;11.17;9.07;;;;;;;12.78;100.00;101705.97;5290713;28;20107;-74
2022/07/23 04:29:26;;;;;;;11.30;10.13;;;;;;;12.75;100.00;101701.66;5293098;28;20036;-74
2022/07/23 04:31:57;;;;;;;15.17;9.80;;;;;;;12.86;100.00;101705.94;5288650;28;20028;-75
2022/07/23 04:34:29;;;;;;;13.13;11.87;;;;;;;12.77;100.00;101702.50;5288607;28;20024;-74
2022/07/23 04:37:00;;;;;;;11.97;10.70;;;;;;;12.88;100.00;101705.03;5288651;28;20124;-73
2022/07/23 04:39:32;;;;;;;12.83;11.37;;;;;;;12.92;100.00;101713.75;5288439;28;20068;-74
2022/07/23 04:42:03;;;;;;;12.77;10.67;;;;;;;13.01;100.00;101715.41;5289089;28;20037;-74
2022/07/23 04:44:34;;;;;;;12.93;11.13;;;;;;;12.95;100.00;101716.34;5287994;28;20094;-74
2022/07/23 04:47:06;;;;;;;12.20;10.90;;;;;;;13.00;100.00;101711.94;5288688;28;20041;-74
2022/07/23 04:49:37;;;;;;;16.23;11.87;;;;;;;13.08;100.00;101723.19;5288573;28;20524;-74
2022/07/23 04:52:09;;;;;;;12.50;11.30;;;;;;;13.08;100.00;101722.34;5288601;28;20498;-75
2022/07/23 04:54:40;;;;;;;12.33;11.13;;;;;;;13.09;100.00;101730.19;5285517;28;20409;-74
2022/07/23 04:57:11;;;;;;;15.27;12.00;;;;;;;13.09;100.00;101724.94;5285085;28;20078;-75
2022/07/23 04:59:43;;;;;;;13.10;11.67;;;;;;;13.09;100.00;101727.56;5284813;28;20044;-74
2022/07/23 05:02:14;;;;;;;13.27;11.97;;;;;;;13.23;100.00;101723.94;5285061;28;20483;-75
2022/07/23 05:04:45;;;;;;;13.70;12.33;;;;;;;13.21;100.00;101729.19;5284827;28;20472;-74
2022/07/23 05:07:17;;;;;;;13.57;11.73;;;;;;;13.21;100.00;101723.97;5285052;28;20032;-74
2022/07/23 05:09:48;;;;;;;12.90;11.70;;;;;;;13.34;100.00;101721.28;5286437;28;20103;-74
2022/07/23 05:12:19;;;;;;;14.23;12.43;;;;;;;13.41;100.00;101720.31;5291390;28;20025;-75
2022/07/23 05:14:52;;;;;;;13.77;10.93;;;;;;;13.47;100.00;101718.50;5285590;28;20452;-74
2022/07/23 05:17:24;;;;;;;13.95;12.00;;;;;;;13.51;100.00;101722.00;5284687;28;20060;-75
2022/07/23 05:19:55;;;;;;;12.27;10.97;;;;;;;13.61;100.00;101726.25;5284657;28;20064;-74
2022/07/23 05:22:27;;;;;;;12.00;10.67;;;;;;;13.62;100.00;101729.72;5284406;28;20476;-75
2022/07/23 05:24:58;;;;;;;15.27;11.57;;;;;;;13.62;100.00;101732.34;5284386;28;20046;-75
2022/07/23 05:27:30;;;;;;;13.90;12.23;;;;;;;13.60;100.00;101731.50;5266119;28;20468;-75
2022/07/23 05:30:01;;;;;;;17.13;12.30;;;;;;;13.67;100.00;101739.28;5284690;28;20480;-75
2022/07/23 05:32:32;;;;;;;13.80;11.97;;;;;;;13.72;100.00;101736.63;5284297;28;20024;-76
2022/07/23 05:35:05;;;;;;;13.77;12.03;;;;;;;13.77;100.00;101731.31;5284310;28;20032;-76
2022/07/23 05:37:37;;;;;;;20.05;11.88;;;;;;;13.88;100.00;101734.69;5283654;28;20031;-76
2022/07/23 05:40:10;;;;;;;16.20;12.90;;;;;;;13.88;100.00;101741.66;5284274;28;20033;-75
2022/07/23 05:42:44;;;;;;;18.40;12.48;;;;;;;14.01;100.00;101744.16;5284176;28;20090;-75
2022/07/23 05:45:15;;;;;;;12.65;11.27;;;;;;;14.07;100.00;101743.22;5284443;28;20064;-75
2022/07/23 05:47:48;;;;;;;12.57;11.33;;;;;;;14.18;100.00;101741.34;5266043;28;20097;-76
2022/07/23 05:50:19;;;;;;;14.07;11.38;;;;;;;14.23;100.00;101744.75;5283919;28;20098;-76
2022/07/23 05:52:50;;;;;;;12.23;11.03;;;;;;;14.23;100.00;101747.38;5284106;28;20484;-74
2022/07/23 05:55:22;;;;;;;12.20;10.80;;;;;;;14.31;100.00;101757.78;5283551;28;20039;-74
2022/07/23 05:57:53;;;;;;;14.07;11.60;;;;;;;14.35;100.00;101754.22;5266024;28;20032;-74
2022/07/23 06:00:25;;;;;;;13.00;11.60;;;;;;;14.39;100.00;101758.53;5283574;28;20405;-74
2022/07/23 06:02:57;;;;;;;16.10;11.05;;;;;;;14.54;100.00;101765.34;5284212;28;20501;-74
2022/07/23 06:05:29;;;;;;;12.38;11.00;;;;;;;14.51;100.00;101761.91;5283237;28;20081;-74
2022/07/23 06:08:00;;;;;;;14.10;11.40;;;;;;;14.57;100.00;101764.41;5283782;28;20041;-75
2022/07/23 06:10:31;;;;;;;13.20;11.40;;;;;;;14.61;100.00;101766.16;5282762;28;20028;-74
2022/07/23 06:13:03;;;;;;;16.03;10.90;;;;;;;14.76;99.81;101780.81;5283124;28;20043;-75
2022/07/23 06:15:34;;;;;;;11.80;10.37;;;;;;;14.80;99.77;101779.88;5283126;28;20107;-75
2022/07/23 06:18:05;;;;;;;17.23;11.67;;;;;;;14.89;99.21;101771.00;5283571;28;20476;-74
2022/07/23 06:20:37;;;;;;;12.90;10.53;;;;;;;14.90;98.48;101773.59;5282870;28;20337;-74
2022/07/23 06:23:08;;;;;;;12.80;11.13;;;;;;;15.08;98.05;101769.81;5282913;28;20489;-74
2022/07/23 06:25:40;;;;;;;11.10;10.00;;;;;;;15.14;97.89;101771.50;5282934;28;20119;-75
2022/07/23 06:28:11;;;;;;;15.70;11.27;;;;;;;15.21;97.54;101764.38;5283022;28;20028;-74
2022/07/23 06:30:42;;;;;;;14.47;11.50;;;;;;;15.28;97.42;101771.28;5283094;28;20028;-74
2022/07/23 06:33:14;;;;;;;11.87;10.10;;;;;;;15.28;97.22;101772.13;5283035;28;20544;-74
2022/07/23 06:35:45;;;;;;;15.33;10.93;;;;;;;15.39;97.17;101769.34;5282741;28;20044;-75
2022/07/23 06:38:16;;;;;;;12.20;10.13;;;;;;;15.50;95.74;101774.38;5268881;28;20040;-75
2022/07/23 06:40:48;;;;;;;12.43;9.07;;;;;;;15.56;95.52;101771.66;5278410;28;20048;-74
2022/07/23 06:43:19;;;;;;;12.83;10.30;;;;;;;15.62;94.68;101771.53;5284117;28;20102;-75
2022/07/23 06:45:50;;;;;;;9.70;8.53;;;;;;;15.81;93.39;101777.38;5282622;28;20384;-75
2022/07/23 06:48:22;;;;;;;15.93;9.07;;;;;;;15.87;91.63;101784.25;5282746;28;20033;-75
2022/07/23 06:50:54;;;;;;;15.10;7.10;;;;;;;15.94;90.78;101780.63;5282455;28;20032;-75
2022/07/23 06:53:26;;;;;;;9.98;7.75;;;;;;;16.06;91.33;101787.41;5282626;28;20028;-75
2022/07/23 06:55:57;;;;;;;17.43;7.50;;;;;;;16.07;88.70;101781.25;5282667;28;20066;-75
2022/07/23 06:58:28;;;;;;;10.43;6.87;;;;;;;16.13;87.81;101783.78;5282471;28;20044;-75
2022/07/23 07:01:00;;;;;;;9.10;6.40;;;;;;;16.18;87.27;101776.66;5282371;28;20112;-75
2022/07/23 07:03:31;;;;;;;11.73;6.47;;;;;;;16.28;85.49;101779.97;5282305;28;20068;-74
2022/07/23 07:06:02;;;;;;;8.23;5.63;;;;;;;16.36;83.26;101783.28;5282219;28;20078;-74
2022/07/23 07:08:34;;;;;;;7.00;5.93;;;;;;;16.44;85.22;101777.88;5282286;28;20131;-74
2022/07/23 07:11:06;;;;;;;7.23;6.03;;;;;;;16.56;85.14;101782.00;5248036;28;20078;-74
2022/07/23 07:13:37;;;;;;;8.33;5.63;;;;;;;16.64;83.43;101782.69;5282640;28;20071;-74
2022/07/23 07:16:09;;;;;;;8.65;6.10;;;;;;;16.74;83.55;101785.97;5281869;28;20102;-74
2022/07/23 07:18:40;;;;;;;5.43;4.93;;;;;;;16.86;83.13;101777.00;5281644;28;20037;-74
2022/07/23 07:21:12;;;;;;;7.37;5.70;;;;;;;16.94;83.39;101775.88;5282578;28;20047;-74
2022/07/23 07:23:43;;;;;;;8.67;6.00;;;;;;;17.07;83.46;101787.00;5286569;28;20028;-74
2022/07/23 07:26:15;;;;;;;8.10;6.07;;;;;;;17.22;81.46;101787.53;5284346;28;20078;-74
2022/07/23 07:28:46;;;;;;;9.40;6.53;;;;;;;17.23;81.38;101789.28;5281930;28;20029;-74
2022/07/23 07:31:17;;;;;;;7.57;6.33;;;;;;;17.30;80.76;101788.22;5282738;28;20067;-74
2022/07/23 07:33:49;;;;;;;9.13;7.07;;;;;;;17.32;80.76;101796.94;5282061;28;20059;-75
2022/07/23 07:36:20;;;;;;;10.07;7.73;;;;;;;17.36;82.14;101798.59;5282073;28;20035;-75
2022/07/23 07:38:52;;;;;;;15.30;6.97;;;;;;;17.50;81.68;101798.25;5281264;28;20372;-76
2022/07/23 07:41:23;;;;;;;8.33;6.27;;;;;;;17.63;80.41;101799.66;5286678;28;20051;-74
2022/07/23 07:43:55;;;;;;;8.40;6.65;;;;;;;17.73;79.63;101796.78;5264847;28;20068;-75
2022/07/23 07:46:27;;;;;;;10.03;6.20;;;;;;;17.73;77.23;101800.28;5263818;28;20102;-76
2022/07/23 07:48:58;;;;;;;10.32;5.93;;;;;;;17.86;78.60;101785.00;5281596;28;20429;-76
2022/07/23 07:51:30;;;;;;;8.43;6.07;;;;;;;17.91;75.72;101787.56;5281714;28;20036;-75
2022/07/23 07:54:01;;;;;;;7.93;6.70;;;;;;;17.83;75.92;101788.56;5282343;28;20032;-74
2022/07/23 07:56:32;;;;;;;11.17;6.17;;;;;;;18.07;77.52;101791.47;5281787;28;20094;-74
2022/07/23 07:59:04;;;;;;;8.40;6.03;;;;;;;18.23;77.34;101798.06;5281877;28;20029;-75
2022/07/23 08:01:35;;;;;;;8.23;6.23;;;;;;;18.38;76.17;101801.16;5281972;28;20028;-75
2022/07/23 08:04:07;;;;;;;6.83;5.17;;;;;;;18.39;72.55;101802.91;5263796;28;20033;-74
2022/07/23 08:06:38;;;;;;;7.53;5.53;;;;;;;18.61;70.39;101802.25;5282126;28;20029;-75
2022/07/23 08:09:10;;;;;;;6.03;4.43;;;;;;;18.55;68.50;101803.31;5285667;28;20036;-76
2022/07/23 08:11:41;;;;;;;11.80;5.53;;;;;;;18.74;71.58;101798.31;5264448;28;20096;-76
2022/07/23 08:14:13;;;;;;;10.60;6.23;;;;;;;18.72;69.63;101810.72;5281403;28;20461;-75
2022/07/23 08:16:44;;;;;;;7.47;4.80;;;;;;;19.02;71.60;101808.06;5282746;28;20476;-75
2022/07/23 08:19:15;;;;;;;12.23;5.13;;;;;;;18.91;69.62;101803.97;5281608;28;20021;-74
2022/07/23 08:21:47;;;;;;;7.40;5.30;;;;;;;19.09;70.91;101812.22;5281163;28;20027;-74
2022/07/23 08:24:18;;;;;;;6.53;5.13;;;;;;;19.37;68.98;101808.69;5280767;28;20029;-74
2022/07/23 08:26:49;;;;;;;5.67;4.77;;;;;;;19.39;68.28;101812.16;5281017;28;20482;-74
2022/07/23 08:29:21;;;;;;;6.70;4.87;;;;;;;19.66;68.58;101813.84;5282479;28;20468;-74
2022/07/23 08:31:52;;;;;;;9.50;5.30;;;;;;;19.77;68.84;101817.94;5285066;28;20031;-74
2022/07/23 08:34:23;;;;;;;7.40;4.47;;;;;;;19.86;65.36;101818.47;5285089;28;20025;-75
2022/07/23 08:36:55;;;;;;;7.77;3.93;;;;;;;20.04;65.36;101824.91;5285379;28;20126;-75
2022/07/23 08:39:27;;;;;;;7.93;4.37;;;;;;;19.81;63.72;101819.56;5266974;28;20162;-75
2022/07/23 08:41:58;;;;;;;7.13;4.85;;;;;;;19.68;63.56;101824.38;5266887;28;20035;-75
2022/07/23 08:44:30;;;;;;;9.33;5.00;;;;;;;19.73;63.48;101832.16;5284279;28;20053;-75
2022/07/23 08:47:03;;;;;;;7.05;5.30;;;;;;;19.97;64.04;101836.63;5267368;28;20049;-74
2022/07/23 08:49:34;;;;;;;9.25;4.85;;;;;;;19.99;64.00;101834.78;5266722;28;20094;-74
2022/07/23 08:52:07;;;;;;;7.10;4.77;;;;;;;20.18;64.56;101828.84;5284497;28;20454;-74
2022/07/23 08:54:38;;;;;;;8.63;4.53;;;;;;;20.36;63.52;101828.13;5283812;28;20104;-75
2022/07/23 08:57:10;;;;;;;4.83;3.93;;;;;;;20.43;63.25;101838.50;5249806;28;20451;-75
2022/07/23 08:59:41;;;;;;;7.60;4.43;;;;;;;20.47;62.29;101834.84;5266069;28;20283;-73
2022/07/23 09:02:12;;;;;;;6.93;5.30;;;;;;;20.20;61.17;101834.94;5284370;28;20048;-73
2022/07/23 09:04:44;;;;;;;8.47;4.60;;;;;;;20.54;62.24;101833.66;5284664;28;20031;-74
2022/07/23 09:07:15;;;;;;;5.13;3.90;;;;;;;20.39;60.17;101833.31;5284362;28;20028;-74
2022/07/23 09:09:47;;;;;;;8.10;4.40;;;;;;;20.47;61.78;101825.09;5284296;28;20371;-75
2022/07/23 09:12:19;;;;;;;;;;;;;;;20.86;61.58;101827.16;5284831;28;20123;-74
2022/07/23 09:14:51;;;;;;;9.50;4.93;;;;;;;20.76;62.59;101823.16;5283785;28;20006;-74
2022/07/23 09:17:22;;;;;;;7.95;4.57;;;;;;;20.95;62.28;101821.50;5283806;28;20016;-74
2022/07/23 09:20:08;;;;;;;7.03;4.23;;;;;;;20.81;59.71;101815.03;5265670;28;20450;-74
2022/07/23 09:22:47;;;;;;;5.30;4.07;;;;;;;21.05;60.99;101808.72;5266181;28;20021;-74
2022/07/23 09:25:19;;;;;;;5.75;4.30;;;;;;;20.99;59.63;101808.97;5283997;28;20052;-75
2022/07/23 09:27:59;;;;;;;6.35;4.28;;;;;;;21.07;57.84;101809.53;5284295;28;20086;-74
2022/07/23 09:30:34;;;;;;;8.43;4.75;;;;;;;21.35;59.69;101810.19;5284251;28;20405;-75
2022/07/23 09:33:11;;;;;;;5.82;4.40;;;;;;;21.73;59.35;101821.00;5284203;28;20118;-74
2022/07/23 09:35:45;;;;;;;5.65;3.40;;;;;;;21.88;60.07;101824.75;5285410;28;20025;-73
2022/07/23 09:38:18;;;;;;;5.13;3.65;;;;;;;21.68;57.48;101827.34;5284443;28;20426;-75
2022/07/23 09:41:07;;;;;;;5.93;4.47;;;;;;;21.78;55.49;101825.19;5265472;28;20028;-75
2022/07/23 09:43:38;;;;;;;7.32;4.03;;;;;;;21.67;56.12;101824.78;5260859;28;20109;-75
2022/07/23 09:46:21;;;;;;;4.87;3.40;;;;;;;21.84;56.82;101835.50;5262609;28;20088;-74
2022/07/23 09:48:56;;;;;;;6.80;3.60;;;;;;;21.81;55.41;101829.47;5262458;28;20052;-75
2022/07/23 09:51:37;;;;;;;6.80;4.25;;;;;;;22.28;57.04;101825.66;5262974;28;20376;-74
2022/07/23 09:54:21;;;;;;;7.35;3.78;;;;;;;22.65;57.06;101827.47;5262512;28;20040;-75
2022/07/23 09:56:54;;;;;;;5.78;3.45;;;;;;;22.70;54.62;101832.59;5262698;28;20069;-75
2022/07/23 09:59:28;;;;;;;;;;;;;;;23.44;57.27;101837.00;5262598;28;20392;-76
2022/07/23 10:02:00;;;;;;;8.02;3.55;;;;;;;23.78;52.83;101828.16;5262007;28;19916;-75
2022/07/23 10:04:32;;;;;;;6.18;3.50;;;;;;;24.44;49.42;101830.94;5263043;28;20052;-76
2022/07/23 10:07:04;;;;;;;;;;;;;;;26.52;52.55;101826.78;5262881;28;20029;-76
2022/07/23 10:09:39;;;;;;;6.38;2.97;;;;;;;26.49;45.06;101826.97;5261763;28;19989;-77
2022/07/23 10:14:53;;;;;;;4.65;3.45;;;;;;;28.06;39.20;101829.06;5261990;28;20416;-77
2022/07/23 10:17:25;;;;;;;6.00;2.83;;;;;;;29.13;41.04;101830.31;5262512;28;20040;-76
2022/07/23 10:19:56;;;;;;;5.68;2.88;;;;;;;28.91;36.55;101824.69;5268692;28;20518;-76
2022/07/23 10:22:36;;;;;;;;;;;;;;;30.45;36.92;101833.53;5248726;28;20029;-77
2022/07/23 10:25:40;;;;;;;3.63;2.38;;;;;;;29.33;37.94;101831.50;5261846;28;19908;-75
2022/07/23 10:28:26;;;;;;;4.30;2.95;;;;;;;28.88;39.10;101829.44;5249675;28;20041;-76
2022/07/23 10:31:19;;;;;;;4.85;3.65;;;;;;;29.89;38.68;101828.97;5261895;28;20033;-75
2022/07/23 10:34:09;;;;;;;;;;;;;;;32.29;33.88;101831.56;5261982;28;20048;-76
2022/07/23 10:36:52;;;;;;;3.30;2.50;;;;;;;31.39;34.62;101827.63;5261833;28;19909;-76
2022/07/23 10:39:30;;;;;;;4.95;2.83;;;;;;;30.13;34.02;101838.78;5262292;28;20021;-75
2022/07/23 10:42:13;;;;;;;6.32;3.78;;;;;;;30.73;36.12;101825.88;5261623;28;20033;-76
2022/07/23 10:44:48;;;;;;;6.45;3.53;;;;;;;31.11;32.36;101831.78;5279316;28;20056;-75
2022/07/23 10:47:43;;;;;;;7.93;3.17;;;;;;;31.20;32.51;101828.31;5282286;28;20484;-75
2022/07/23 10:50:19;;;;;;;5.22;3.05;;;;;;;30.02;33.53;101828.03;5264818;28;20125;-75
2022/07/23 10:53:08;;;;;;;3.80;2.63;;;;;;;30.22;33.59;101826.41;5281539;28;20024;-75
2022/07/23 10:55:43;;;;;;;3.80;2.17;;;;;;;31.12;33.39;101820.88;5282565;28;20481;-75
2022/07/23 10:58:23;;;;;;;4.07;2.50;;;;;;;32.83;32.00;101814.09;5281702;28;20025;-76
2022/07/23 11:00:55;;;;;;;4.80;2.88;;;;;;;32.93;31.78;101824.06;5282444;28;20035;-76
2022/07/23 11:03:32;;;;;;;3.08;2.33;;;;;;;32.69;29.61;101826.16;5285069;28;20032;-75
2022/07/23 11:06:04;;;;;;;5.78;2.42;;;;;;;33.31;29.48;101831.31;5289355;28;20072;-76
2022/07/23 11:08:36;;;;;;;3.80;2.28;;;;;;;34.16;27.00;101823.28;5283027;28;20119;-75
2022/07/23 11:11:09;;;;;;;5.53;2.72;;;;;;;33.87;25.82;101823.41;5282363;28;20116;-75
2022/07/23 11:13:44;;;;;;;5.93;3.15;;;;;;;34.03;28.03;101815.50;5282267;28;20029;-76
2022/07/23 11:16:18;;;;;;;8.15;3.30;;;;;;;33.18;29.10;101822.66;5282206;28;20024;-76
2022/07/23 11:18:57;;;;;;;4.43;2.25;;;;;;;33.58;30.54;101819.75;5281885;28;20075;-76
2022/07/23 11:21:37;;;;;;;3.67;2.45;;;;;;;34.70;27.41;101809.91;5281951;28;20028;-77
2022/07/23 11:24:14;;;;;;;5.68;2.42;;;;;;;34.89;27.70;101808.94;5281917;28;20053;-77
2022/07/23 11:26:59;;;;;;;2.80;2.47;;;;;;;35.55;27.90;101806.75;5264854;28;20458;-76
2022/07/23 11:29:31;;;;;;;5.18;2.50;;;;;;;35.03;25.97;101799.38;5264295;28;20031;-77
2022/07/23 11:32:05;;;;;;;4.15;2.53;;;;;;;35.85;25.78;101800.00;5281800;28;20028;-77
2022/07/23 11:34:41;;;;;;;5.15;3.10;;;;;;;34.96;25.70;101799.16;5282113;28;20111;-77
2022/07/23 11:37:28;;;;;;;4.03;2.38;;;;;;;34.02;27.30;101808.41;5281745;28;20443;-76
2022/07/23 11:40:01;;;;;;;2.55;2.35;;;;;;;33.42;26.23;101808.69;5281547;28;20028;-77
2022/07/23 11:42:33;;;;;;;3.97;2.80;;;;;;;33.13;27.82;101806.84;5281665;28;20033;-76
2022/07/23 11:45:08;;;;;;;3.45;1.95;;;;;;;34.34;26.81;101799.00;5281016;28;20123;-76
2022/07/23 11:47:40;;;;;;;4.53;2.45;;;;;;;35.01;24.86;101799.53;5281477;28;20044;-76